Ellen — SIDM — position and weather

sailwx.info

Track history (hours):
 
Tides and Currents Weather Stations Pressure Air Temp Water Temp Dewpoint Dewpoint Depression Visibility Wind Speed Wind Dir Waves Ship Positions

Ellen (Sweden)

Ship's website: http://www.syellen.org/Skolsegelfartyget_Ellen/Hem.html

Last reported at 2019-Jun-16 14:26 UTC. Time now 2019-Jun-16 14:34 UTC.
Position N 59°16' E 018°40'.

Length 22 m; draft 2.2 m.

Type: Sailing vessel. MMSI: 265508900.

Date/timePositionNaut miles runAvg speedWind from/ knotsBaromVisibWave heightAir tempDewpointWater temp
2019-Jun-16 14:26N 59°16' E 018°40'3 5.8
2019-Jun-16 13:54N 59°18' E 018°45'2 3.5
2019-Jun-16 13:28N 59°19' E 018°46'1 1.2
2019-Jun-16 13:00N 59°19' E 018°47'1 1.5
2019-Jun-16 12:28N 59°20' E 018°47'1 1.6
2019-Jun-16 11:36N 59°21' E 018°49'1 3.8
2019-Jun-16 11:20N 59°22' E 018°50'1 1.7
2019-Jun-16 10:59N 59°22' E 018°51'1 1.2
2019-Jun-16 10:15N 59°23' E 018°50'0 0.5
2019-Jun-16 10:00N 59°23' E 018°50'3 4.8
2019-Jun-16 09:22N 59°25' E 018°47'2 2.0
2019-Jun-16 08:25N 59°25' E 018°43'0 0.0
2019-Jun-16 07:22N 59°25' E 018°43'0 0.0
2019-Jun-16 06:25N 59°25' E 018°43'0 0.0
2019-Jun-16 05:16N 59°25' E 018°43'0 0.0
2019-Jun-16 04:28N 59°25' E 018°43'0 0.0
2019-Jun-16 03:58N 59°25' E 018°43'0 0.0
2019-Jun-16 03:28N 59°25' E 018°43'0 0.0
2019-Jun-16 02:58N 59°25' E 018°43'0 0.0
2019-Jun-16 02:25N 59°25' E 018°43'0 0.0
2019-Jun-16 01:58N 59°25' E 018°43'0 0.0
2019-Jun-16 01:25N 59°25' E 018°43'0 0.0
2019-Jun-16 00:58N 59°25' E 018°43'0 0.0
2019-Jun-15 23:37N 59°25' E 018°43'0 0.0
2019-Jun-15 23:16N 59°25' E 018°43'0 0.0
2019-Jun-15 22:58N 59°25' E 018°43'0 0.0
2019-Jun-15 22:13N 59°25' E 018°43'0 0.0
2019-Jun-15 21:52N 59°25' E 018°43'0 0.0
2019-Jun-15 21:28N 59°25' E 018°43'0 0.0
2019-Jun-15 20:52N 59°25' E 018°43'0 0.0
2019-Jun-15 20:25N 59°25' E 018°43'0 0.0
2019-Jun-15 18:13N 59°25' E 018°43'0 0.0
2019-Jun-15 17:01N 59°25' E 018°43'0 0.0
2019-Jun-15 16:49N 59°25' E 018°43'0 0.0
2019-Jun-15 15:42N 59°25' E 018°43'0 0.0
2019-Jun-15 15:25N 59°25' E 018°43'0 0.0
2019-Jun-15 14:57N 59°25' E 018°43'1 2.8
2019-Jun-15 14:30N 59°23' E 018°43'2 3.3
2019-Jun-15 13:52N 59°22' E 018°46'3 5.1
2019-Jun-15 13:19N 59°21' E 018°51'1 1.8
2019-Jun-15 12:31N 59°21' E 018°48'0 4.2
2019-Jun-15 12:30N 59°21' E 018°48'1 2.4
2019-Jun-15 11:59N 59°22' E 018°46'0 0.9
2019-Jun-15 11:26N 59°22' E 018°45'4 6.1
2019-Jun-15 10:50N 59°22' E 018°38'0 1.2
2019-Jun-15 10:26N 59°22' E 018°39'0 0.0
2019-Jun-15 08:56N 59°22' E 018°39'0 0.0
2019-Jun-14 21:21N 59°22' E 018°39'0 0.0
2019-Jun-14 20:45N 59°22' E 018°39'0 0.0
2019-Jun-14 20:30N 59°22' E 018°39'0 0.0
2019-Jun-14 19:33N 59°22' E 018°39'0 0.0
2019-Jun-14 19:15N 59°22' E 018°39'0 0.0
2019-Jun-14 18:27N 59°22' E 018°39'0 0.0
2019-Jun-14 17:51N 59°22' E 018°39'0 0.0
2019-Jun-14 17:30N 59°22' E 018°39'0 0.0
2019-Jun-14 17:00N 59°22' E 018°39'0 0.0
2019-Jun-14 15:45N 59°22' E 018°39'0 0.0
2019-Jun-14 15:28N 59°22' E 018°39'0 0.0
2019-Jun-14 15:00N 59°22' E 018°39'0 0.0
2019-Jun-14 14:30N 59°22' E 018°39'0 0.0
2019-Jun-14 14:00N 59°22' E 018°39'0 0.0
2019-Jun-14 13:30N 59°22' E 018°39'0 0.0
2019-Jun-14 13:00N 59°22' E 018°39'0 0.0
2019-Jun-14 12:30N 59°22' E 018°39'0 1.0
2019-Jun-14 12:00N 59°22' E 018°38'3 4.7
2019-Jun-14 11:26N 59°22' E 018°43'3 6.5
2019-Jun-14 11:00N 59°20' E 018°47'3 5.9
2019-Jun-14 10:30N 59°19' E 018°52'1 2.3
2019-Jun-14 10:00N 59°19' E 018°50'1 1.3
2019-Jun-14 09:11N 59°19' E 018°52'0 2.0
2019-Jun-14 08:59N 59°19' E 018°53'1 1.1
2019-Jun-14 08:19N 59°19' E 018°54'1 0.1
2019-Jun-13 13:31N 59°21' E 018°55'1 3.4
2019-Jun-13 13:06N 59°22' E 018°54'1 3.4
2019-Jun-13 12:45N 59°21' E 018°51'1 1.6
2019-Jun-13 12:19N 59°22' E 018°51'1 2.7
2019-Jun-13 11:59N 59°23' E 018°50'1 2.2
2019-Jun-13 11:24N 59°22' E 018°52'1 2.3
2019-Jun-13 11:00N 59°21' E 018°50'2 2.9
2019-Jun-13 10:21N 59°22' E 018°47'2 4.7
2019-Jun-13 09:58N 59°22' E 018°44'3 5.7
2019-Jun-13 09:27N 59°23' E 018°38'1 0.0
2019-Jun-12 14:00N 59°24' E 018°37'3 5.4
2019-Jun-12 13:29N 59°25' E 018°32'1 3.1
2019-Jun-12 13:00N 59°26' E 018°32'1 1.7
2019-Jun-12 12:28N 59°26' E 018°30'3 5.6
2019-Jun-12 12:00N 59°26' E 018°25'3 5.5
2019-Jun-12 11:30N 59°23' E 018°27'2 4.2
2019-Jun-12 11:00N 59°22' E 018°24'2 5.0
2019-Jun-12 10:30N 59°22' E 018°19'2 4.9
2019-Jun-12 10:00N 59°21' E 018°14'2 4.7
2019-Jun-12 09:30N 59°20' E 018°11'2 4.3
2019-Jun-12 09:00N 59°19' E 018°07'0 0.8
2019-Jun-12 08:29N 59°19' E 018°06'0 0.0
2019-Jun-12 07:59N 59°19' E 018°06'0 0.0
2019-Jun-12 07:29N 59°19' E 018°06'0 0.0
2019-Jun-12 06:59N 59°19' E 018°06'0 0.0
2019-Jun-12 06:29N 59°19' E 018°06'0 0.0
2019-Jun-12 05:59N 59°19' E 018°06'0 0.0
2019-Jun-12 05:29N 59°19' E 018°06'0 0.0
2019-Jun-12 04:59N 59°19' E 018°06'0 0.0
2019-Jun-12 04:29N 59°19' E 018°06'0 0.0
2019-Jun-12 03:59N 59°19' E 018°06'0 0.0
2019-Jun-12 03:29N 59°19' E 018°06'0 0.0
2019-Jun-12 02:59N 59°19' E 018°06'0 0.0
2019-Jun-12 01:59N 59°19' E 018°06'0 0.0
2019-Jun-12 01:29N 59°19' E 018°06'0 0.0
2019-Jun-12 00:59N 59°19' E 018°06'0 0.0
2019-Jun-12 00:29N 59°19' E 018°06'0 0.0
2019-Jun-11 23:59N 59°19' E 018°06'0 0.0
2019-Jun-11 23:29N 59°19' E 018°06'0 0.0
2019-Jun-11 22:59N 59°19' E 018°06'0 0.0
2019-Jun-11 22:29N 59°19' E 018°06'0 0.0
2019-Jun-11 21:59N 59°19' E 018°06'0 0.0
2019-Jun-11 21:29N 59°19' E 018°06'0 0.0
2019-Jun-11 20:59N 59°19' E 018°06'0 0.0
2019-Jun-11 20:29N 59°19' E 018°06'0 0.0
2019-Jun-11 19:59N 59°19' E 018°06'0 0.0
2019-Jun-11 19:29N 59°19' E 018°06'0 0.0
2019-Jun-11 18:59N 59°19' E 018°06'0 0.0
2019-Jun-11 18:29N 59°19' E 018°06'0 0.0
2019-Jun-11 17:59N 59°19' E 018°06'0 0.0
2019-Jun-11 17:29N 59°19' E 018°06'0 0.0
2019-Jun-11 16:59N 59°19' E 018°06'0 0.0
2019-Jun-11 16:29N 59°19' E 018°06'0 0.0
2019-Jun-11 15:56N 59°19' E 018°06'0 0.0
2019-Jun-11 15:29N 59°19' E 018°06'0 0.0
2019-Jun-11 14:59N 59°19' E 018°06'0 0.0
2019-Jun-11 14:23N 59°19' E 018°06'0 0.0
2019-Jun-11 13:59N 59°19' E 018°06'0 0.0
2019-Jun-11 13:29N 59°19' E 018°06'0 0.0
2019-Jun-11 12:59N 59°19' E 018°06'0 0.0
2019-Jun-11 12:29N 59°19' E 018°06'0 0.0
2019-Jun-11 11:59N 59°19' E 018°06'0 0.0
2019-Jun-11 11:29N 59°19' E 018°06'0 0.0
2019-Jun-11 10:59N 59°19' E 018°06'0 0.0
2019-Jun-11 10:26N 59°19' E 018°06'0 0.0
2019-Jun-11 09:59N 59°19' E 018°06'0 0.0
2019-Jun-11 09:29N 59°19' E 018°06'0 0.0
2019-Jun-11 08:59N 59°19' E 018°06'0 0.0
2019-Jun-11 08:29N 59°19' E 018°06'0 0.0
2019-Jun-11 07:59N 59°19' E 018°06'0 0.0
2019-Jun-11 07:23N 59°19' E 018°06'0 0.0
2019-Jun-11 06:59N 59°19' E 018°06'0 0.0
2019-Jun-11 06:29N 59°19' E 018°06'0 0.0
2019-Jun-11 05:59N 59°19' E 018°06'0 0.0
2019-Jun-11 05:29N 59°19' E 018°06'0 0.0
2019-Jun-11 04:59N 59°19' E 018°06'0 0.0
2019-Jun-11 04:29N 59°19' E 018°06'0 0.0
2019-Jun-11 03:59N 59°19' E 018°06'0 0.0
2019-Jun-11 03:29N 59°19' E 018°06'0 0.0
2019-Jun-11 02:59N 59°19' E 018°06'0 0.0
2019-Jun-11 02:29N 59°19' E 018°06'0 0.0
2019-Jun-11 01:59N 59°19' E 018°06'0 0.0
2019-Jun-11 01:29N 59°19' E 018°06'0 0.0
2019-Jun-11 00:59N 59°19' E 018°06'0 0.0
2019-Jun-11 00:29N 59°19' E 018°06'0 0.0
2019-Jun-10 23:59N 59°19' E 018°06'0 0.0
2019-Jun-10 23:29N 59°19' E 018°06'0 0.0
2019-Jun-10 22:59N 59°19' E 018°06'0 0.0
2019-Jun-10 22:29N 59°19' E 018°06'0 0.0
2019-Jun-10 21:59N 59°19' E 018°06'0 0.0
2019-Jun-10 21:30N 59°19' E 018°06'0 0.0
2019-Jun-10 20:59N 59°19' E 018°06'0 0.0
2019-Jun-10 20:29N 59°19' E 018°06'0 0.0
2019-Jun-10 19:59N 59°19' E 018°06'0 0.0
2019-Jun-10 19:30N 59°19' E 018°06'0 0.0
2019-Jun-10 18:59N 59°19' E 018°06'0 0.0
2019-Jun-10 18:29N 59°19' E 018°06'0 0.0
2019-Jun-10 17:59N 59°19' E 018°06'0 0.0
2019-Jun-10 17:29N 59°19' E 018°06'0 0.0
2019-Jun-10 16:59N 59°19' E 018°06'0 0.0
2019-Jun-10 16:29N 59°19' E 018°06'0 0.0
2019-Jun-10 15:59N 59°19' E 018°06'0 0.0
2019-Jun-10 15:29N 59°19' E 018°06'0 0.0
2019-Jun-10 15:00N 59°19' E 018°06'0 0.0
2019-Jun-10 14:29N 59°19' E 018°06'0 0.0
2019-Jun-10 13:59N 59°19' E 018°06'0 0.0
2019-Jun-10 13:30N 59°19' E 018°06'0 0.0
2019-Jun-10 12:59N 59°19' E 018°06'0 0.0
2019-Jun-10 12:29N 59°19' E 018°06'0 0.0
2019-Jun-10 11:59N 59°19' E 018°06'0 0.0
2019-Jun-10 11:29N 59°19' E 018°06'0 0.0
2019-Jun-10 10:59N 59°19' E 018°06'0 0.0
2019-Jun-10 10:29N 59°19' E 018°06'0 0.0
2019-Jun-10 09:59N 59°19' E 018°06'0 0.0
2019-Jun-10 09:29N 59°19' E 018°06'0 0.0
2019-Jun-10 08:59N 59°19' E 018°06'0 0.0
2019-Jun-10 08:29N 59°19' E 018°06'0 0.0
2019-Jun-10 07:59N 59°19' E 018°06'0 0.0
2019-Jun-10 07:29N 59°19' E 018°06'0 0.0
2019-Jun-10 06:59N 59°19' E 018°06'0 0.0
2019-Jun-10 06:30N 59°19' E 018°06'0 0.0
2019-Jun-10 05:59N 59°19' E 018°06'0 0.0
2019-Jun-10 05:29N 59°19' E 018°06'0 0.0
2019-Jun-10 04:59N 59°19' E 018°06'0 0.0
2019-Jun-10 04:29N 59°19' E 018°06'0 0.0
2019-Jun-10 03:59N 59°19' E 018°06'0 0.0
2019-Jun-10 03:29N 59°19' E 018°06'0 0.0
2019-Jun-10 02:59N 59°19' E 018°06'0 0.0
2019-Jun-10 02:29N 59°19' E 018°06'0 0.0
2019-Jun-10 01:59N 59°19' E 018°06'0 0.0
2019-Jun-10 01:29N 59°19' E 018°06'0 0.0
2019-Jun-10 00:59N 59°19' E 018°06'0 0.0
2019-Jun-10 00:29N 59°19' E 018°06'0 0.0
2019-Jun-09 23:59N 59°19' E 018°06'0 0.0
2019-Jun-09 23:29N 59°19' E 018°06'0 0.0
2019-Jun-09 22:59N 59°19' E 018°06'0 0.0
2019-Jun-09 22:29N 59°19' E 018°06'0 0.0
2019-Jun-09 21:59N 59°19' E 018°06'0 0.0
2019-Jun-09 21:29N 59°19' E 018°06'0 0.0
2019-Jun-09 20:59N 59°19' E 018°06'0 0.0
2019-Jun-09 20:29N 59°19' E 018°06'0 0.0
2019-Jun-09 19:59N 59°19' E 018°06'0 0.0
2019-Jun-09 19:29N 59°19' E 018°06'0 0.0
2019-Jun-09 18:59N 59°19' E 018°06'0 0.0
2019-Jun-09 18:29N 59°19' E 018°06'0 0.0
2019-Jun-09 17:59N 59°19' E 018°06'0 0.0
2019-Jun-09 17:29N 59°19' E 018°06'0 0.0
2019-Jun-09 16:59N 59°19' E 018°06'0 0.0
2019-Jun-09 16:29N 59°19' E 018°06'0 0.0
2019-Jun-09 15:59N 59°19' E 018°06'0 0.0
2019-Jun-09 15:29N 59°19' E 018°06'0 0.0
2019-Jun-09 14:59N 59°19' E 018°06'0 0.0
2019-Jun-09 14:29N 59°19' E 018°06'0 0.0
2019-Jun-09 14:00N 59°19' E 018°06'0 0.0
2019-Jun-09 13:30N 59°19' E 018°06'0 0.0
2019-Jun-09 13:00N 59°19' E 018°06'0 0.0
2019-Jun-09 12:30N 59°19' E 018°06'0 0.0
2019-Jun-09 12:00N 59°19' E 018°06'0 0.0
2019-Jun-09 11:30N 59°19' E 018°06'0 0.0
2019-Jun-09 11:00N 59°19' E 018°06'0 0.0
2019-Jun-09 10:30N 59°19' E 018°06'0 0.0
2019-Jun-09 10:00N 59°19' E 018°06'0 0.0
2019-Jun-09 09:30N 59°19' E 018°06'0 0.0
2019-Jun-09 09:00N 59°19' E 018°06'0 0.0
2019-Jun-09 08:30N 59°19' E 018°06'0 0.0
2019-Jun-09 08:00N 59°19' E 018°06'0 0.0
2019-Jun-09 07:30N 59°19' E 018°06'0 0.0
2019-Jun-09 07:00N 59°19' E 018°06'0 0.0
2019-Jun-09 06:30N 59°19' E 018°06'0 0.0
2019-Jun-09 06:00N 59°19' E 018°06'0 0.0
2019-Jun-09 05:30N 59°19' E 018°06'0 0.0
2019-Jun-09 05:01N 59°19' E 018°06'0 0.0
2019-Jun-09 04:00N 59°19' E 018°06'0 0.0
2019-Jun-09 03:30N 59°19' E 018°06'0 0.0
2019-Jun-09 03:01N 59°19' E 018°06'0 0.0
2019-Jun-09 02:31N 59°19' E 018°06'0 0.0
2019-Jun-09 02:00N 59°19' E 018°06'0 0.0
2019-Jun-09 01:30N 59°19' E 018°06'0 0.0
2019-Jun-09 01:00N 59°19' E 018°06'0 0.0
2019-Jun-09 00:30N 59°19' E 018°06'0 0.0
2019-Jun-09 00:00N 59°19' E 018°06'0 0.0
2019-Jun-08 23:30N 59°19' E 018°06'0 0.0
2019-Jun-08 23:00N 59°19' E 018°06'0 0.0
2019-Jun-08 22:30N 59°19' E 018°06'0 0.0
2019-Jun-08 22:00N 59°19' E 018°06'0 0.0
2019-Jun-08 21:30N 59°19' E 018°06'0 0.0
2019-Jun-08 21:00N 59°19' E 018°06'0 0.0
2019-Jun-08 20:30N 59°19' E 018°06'0 0.0
2019-Jun-08 20:00N 59°19' E 018°06'0 0.0
2019-Jun-08 19:30N 59°19' E 018°06'0 0.0
2019-Jun-08 19:00N 59°19' E 018°06'0 0.0
2019-Jun-08 18:30N 59°19' E 018°06'0 0.0
2019-Jun-08 18:00N 59°19' E 018°06'0 0.0
2019-Jun-08 17:30N 59°19' E 018°06'0 0.0
2019-Jun-08 17:00N 59°19' E 018°06'0 0.0
2019-Jun-08 16:30N 59°19' E 018°06'0 0.0
2019-Jun-08 16:00N 59°19' E 018°06'0 0.0
2019-Jun-08 15:30N 59°19' E 018°06'0 0.0
2019-Jun-08 15:00N 59°19' E 018°06'0 0.0
2019-Jun-08 14:30N 59°19' E 018°06'0 0.0
2019-Jun-08 14:01N 59°19' E 018°06'0 0.0
2019-Jun-08 13:30N 59°19' E 018°06'0 0.0
2019-Jun-08 13:00N 59°19' E 018°06'0 0.0
2019-Jun-08 12:31N 59°19' E 018°06'0 0.0
2019-Jun-08 12:00N 59°19' E 018°06'0 0.0
2019-Jun-08 11:30N 59°19' E 018°06'0 0.0
2019-Jun-08 11:00N 59°19' E 018°06'0 0.0
2019-Jun-08 10:30N 59°19' E 018°06'0 0.0
2019-Jun-08 10:00N 59°19' E 018°06'0 0.0
2019-Jun-08 09:30N 59°19' E 018°06'0 0.0
2019-Jun-08 09:00N 59°19' E 018°06'0 0.0
2019-Jun-08 08:30N 59°19' E 018°06'0 0.0
2019-Jun-08 08:01N 59°19' E 018°06'0 0.0
2019-Jun-08 07:30N 59°19' E 018°06'0 0.0
2019-Jun-08 07:00N 59°19' E 018°06'0 0.0
2019-Jun-08 06:31N 59°19' E 018°06'0 0.0
2019-Jun-08 06:00N 59°19' E 018°06'0 0.0
2019-Jun-08 05:30N 59°19' E 018°06'0 0.0
2019-Jun-08 05:00N 59°19' E 018°06'0 0.0
2019-Jun-08 04:30N 59°19' E 018°06'0 0.0
2019-Jun-08 04:00N 59°19' E 018°06'0 0.0
2019-Jun-08 03:31N 59°19' E 018°06'0 0.0
2019-Jun-08 03:00N 59°19' E 018°06'0 0.0
2019-Jun-08 02:30N 59°19' E 018°06'0 0.0
2019-Jun-08 02:00N 59°19' E 018°06'0 0.0
2019-Jun-08 01:30N 59°19' E 018°06'0 0.0
2019-Jun-08 01:01N 59°19' E 018°06'0 0.0
2019-Jun-08 00:30N 59°19' E 018°06'0 0.0
2019-Jun-08 00:00N 59°19' E 018°06'0 0.0
2019-Jun-07 23:30N 59°19' E 018°06'0 0.0
2019-Jun-07 23:00N 59°19' E 018°06'0 0.0
2019-Jun-07 22:30N 59°19' E 018°06'0 0.0
2019-Jun-07 22:00N 59°19' E 018°06'0 0.0
2019-Jun-07 21:30N 59°19' E 018°06'0 0.0
2019-Jun-07 21:00N 59°19' E 018°06'0 0.0
2019-Jun-07 20:30N 59°19' E 018°06'0 0.0
2019-Jun-07 20:00N 59°19' E 018°06'0 0.0
2019-Jun-07 19:30N 59°19' E 018°06'0 0.0
2019-Jun-07 19:00N 59°19' E 018°06'0 0.0
2019-Jun-07 18:30N 59°19' E 018°06'0 0.0
2019-Jun-07 18:00N 59°19' E 018°06'0 0.0
2019-Jun-07 17:30N 59°19' E 018°06'0 0.0
2019-Jun-07 17:00N 59°19' E 018°06'0 0.0
2019-Jun-07 16:30N 59°19' E 018°06'0 0.0
2019-Jun-07 16:00N 59°19' E 018°06'0 0.0
2019-Jun-07 15:30N 59°19' E 018°06'0 0.0
2019-Jun-07 15:00N 59°19' E 018°06'0 0.0
2019-Jun-07 14:30N 59°19' E 018°06'0 0.0
2019-Jun-07 14:00N 59°19' E 018°06'0 0.0
2019-Jun-07 13:31N 59°19' E 018°06'0 0.0
2019-Jun-07 13:00N 59°19' E 018°06'0 0.0
2019-Jun-07 12:30N 59°19' E 018°06'0 0.0
2019-Jun-07 12:00N 59°19' E 018°06'0 0.0
2019-Jun-07 11:30N 59°19' E 018°06'0 0.0
2019-Jun-07 11:00N 59°19' E 018°06'0 0.0
2019-Jun-07 10:30N 59°19' E 018°06'0 0.0
2019-Jun-07 10:00N 59°19' E 018°06'0 0.0
2019-Jun-07 09:30N 59°19' E 018°06'0 0.0
2019-Jun-07 09:00N 59°19' E 018°06'0 0.0
2019-Jun-07 08:30N 59°19' E 018°06'0 0.0
2019-Jun-07 08:01N 59°19' E 018°06'0 0.0
2019-Jun-07 07:30N 59°19' E 018°06'0 0.0
2019-Jun-07 07:00N 59°19' E 018°06'0 0.0
2019-Jun-07 06:30N 59°19' E 018°06'0 0.0
2019-Jun-07 06:00N 59°19' E 018°06'0 0.0
2019-Jun-07 05:31N 59°19' E 018°06'0 0.0
2019-Jun-07 05:00N 59°19' E 018°06'0 0.0
2019-Jun-07 04:31N 59°19' E 018°06'0 0.0
2019-Jun-07 04:00N 59°19' E 018°06'0 0.0
2019-Jun-07 03:30N 59°19' E 018°06'0 0.0
2019-Jun-07 03:00N 59°19' E 018°06'0 0.0
2019-Jun-07 02:30N 59°19' E 018°06'0 0.0
2019-Jun-07 02:00N 59°19' E 018°06'0 0.0
2019-Jun-07 01:30N 59°19' E 018°06'0 0.0
2019-Jun-07 01:00N 59°19' E 018°06'0 0.0
2019-Jun-07 00:30N 59°19' E 018°06'0 0.0
2019-Jun-07 00:00N 59°19' E 018°06'0 0.0
2019-Jun-06 23:30N 59°19' E 018°06'0 0.0
2019-Jun-06 23:00N 59°19' E 018°06'0 0.0
2019-Jun-06 22:30N 59°19' E 018°06'0 0.0
2019-Jun-06 22:00N 59°19' E 018°06'0 0.0
2019-Jun-06 21:30N 59°19' E 018°06'0 0.0
2019-Jun-06 21:00N 59°19' E 018°06'0 0.0
2019-Jun-06 20:30N 59°19' E 018°06'0 0.0
2019-Jun-06 20:00N 59°19' E 018°06'0 0.0
2019-Jun-06 19:30N 59°19' E 018°06'0 0.0
2019-Jun-06 19:00N 59°19' E 018°06'0 0.0
2019-Jun-06 18:30N 59°19' E 018°06'0 0.0
2019-Jun-06 18:00N 59°19' E 018°06'0 0.0
2019-Jun-06 17:30N 59°19' E 018°06'0 0.0
2019-Jun-06 17:00N 59°19' E 018°06'0 0.0
2019-Jun-06 16:30N 59°19' E 018°06'0 0.0
2019-Jun-06 16:00N 59°19' E 018°06'0 0.0
2019-Jun-06 15:30N 59°19' E 018°06'0 0.0
2019-Jun-06 15:00N 59°19' E 018°06'0 0.0
2019-Jun-06 14:30N 59°19' E 018°06'  
Track history (hours):
 
Tides and Currents Weather Stations Pressure Air Temp Water Temp Dewpoint Dewpoint Depression Visibility Wind Speed Wind Dir Waves Ship Positions

Ellen (Sweden)

Ship's website: http://www.syellen.org/Skolsegelfartyget_Ellen/Hem.html

Last reported at 2019-Jun-16 14:26 UTC. Time now 2019-Jun-16 14:34 UTC.
Position N 59°16' E 018°40'.

Length 22 m; draft 2.2 m.

Type: Sailing vessel. MMSI: 265508900.

Date/timePositionNaut miles runAvg speedWind from/ knotsBaromVisibWave heightAir tempDewpointWater temp
2019-Jun-16 14:26N 59°16' E 018°40'3 5.8
2019-Jun-16 13:54N 59°18' E 018°45'2 3.5
2019-Jun-16 13:28N 59°19' E 018°46'1 1.2
2019-Jun-16 13:00N 59°19' E 018°47'1 1.5
2019-Jun-16 12:28N 59°20' E 018°47'1 1.6
2019-Jun-16 11:36N 59°21' E 018°49'1 3.8
2019-Jun-16 11:20N 59°22' E 018°50'1 1.7
2019-Jun-16 10:59N 59°22' E 018°51'1 1.2
2019-Jun-16 10:15N 59°23' E 018°50'0 0.5
2019-Jun-16 10:00N 59°23' E 018°50'3 4.8
2019-Jun-16 09:22N 59°25' E 018°47'2 2.0
2019-Jun-16 08:25N 59°25' E 018°43'0 0.0
2019-Jun-16 07:22N 59°25' E 018°43'0 0.0
2019-Jun-16 06:25N 59°25' E 018°43'0 0.0
2019-Jun-16 05:16N 59°25' E 018°43'0 0.0
2019-Jun-16 04:28N 59°25' E 018°43'0 0.0
2019-Jun-16 03:58N 59°25' E 018°43'0 0.0
2019-Jun-16 03:28N 59°25' E 018°43'0 0.0
2019-Jun-16 02:58N 59°25' E 018°43'0 0.0
2019-Jun-16 02:25N 59°25' E 018°43'0 0.0
2019-Jun-16 01:58N 59°25' E 018°43'0 0.0
2019-Jun-16 01:25N 59°25' E 018°43'0 0.0
2019-Jun-16 00:58N 59°25' E 018°43'0 0.0
2019-Jun-15 23:37N 59°25' E 018°43'0 0.0
2019-Jun-15 23:16N 59°25' E 018°43'0 0.0
2019-Jun-15 22:58N 59°25' E 018°43'0 0.0
2019-Jun-15 22:13N 59°25' E 018°43'0 0.0
2019-Jun-15 21:52N 59°25' E 018°43'0 0.0
2019-Jun-15 21:28N 59°25' E 018°43'0 0.0
2019-Jun-15 20:52N 59°25' E 018°43'0 0.0
2019-Jun-15 20:25N 59°25' E 018°43'0 0.0
2019-Jun-15 18:13N 59°25' E 018°43'0 0.0
2019-Jun-15 17:01N 59°25' E 018°43'0 0.0
2019-Jun-15 16:49N 59°25' E 018°43'0 0.0
2019-Jun-15 15:42N 59°25' E 018°43'0 0.0
2019-Jun-15 15:25N 59°25' E 018°43'0 0.0
2019-Jun-15 14:57N 59°25' E 018°43'1 2.8
2019-Jun-15 14:30N 59°23' E 018°43'2 3.3
2019-Jun-15 13:52N 59°22' E 018°46'3 5.1
2019-Jun-15 13:19N 59°21' E 018°51'1 1.8
2019-Jun-15 12:31N 59°21' E 018°48'0 4.2
2019-Jun-15 12:30N 59°21' E 018°48'1 2.4
2019-Jun-15 11:59N 59°22' E 018°46'0 0.9
2019-Jun-15 11:26N 59°22' E 018°45'4 6.1
2019-Jun-15 10:50N 59°22' E 018°38'0 1.2
2019-Jun-15 10:26N 59°22' E 018°39'0 0.0
2019-Jun-15 08:56N 59°22' E 018°39'0 0.0
2019-Jun-14 21:21N 59°22' E 018°39'0 0.0
2019-Jun-14 20:45N 59°22' E 018°39'0 0.0
2019-Jun-14 20:30N 59°22' E 018°39'0 0.0
2019-Jun-14 19:33N 59°22' E 018°39'0 0.0
2019-Jun-14 19:15N 59°22' E 018°39'0 0.0
2019-Jun-14 18:27N 59°22' E 018°39'0 0.0
2019-Jun-14 17:51N 59°22' E 018°39'0 0.0
2019-Jun-14 17:30N 59°22' E 018°39'0 0.0
2019-Jun-14 17:00N 59°22' E 018°39'0 0.0
2019-Jun-14 15:45N 59°22' E 018°39'0 0.0
2019-Jun-14 15:28N 59°22' E 018°39'0 0.0
2019-Jun-14 15:00N 59°22' E 018°39'0 0.0
2019-Jun-14 14:30N 59°22' E 018°39'0 0.0
2019-Jun-14 14:00N 59°22' E 018°39'0 0.0
2019-Jun-14 13:30N 59°22' E 018°39'0 0.0
2019-Jun-14 13:00N 59°22' E 018°39'0 0.0
2019-Jun-14 12:30N 59°22' E 018°39'0 1.0
2019-Jun-14 12:00N 59°22' E 018°38'3 4.7
2019-Jun-14 11:26N 59°22' E 018°43'3 6.5
2019-Jun-14 11:00N 59°20' E 018°47'3 5.9
2019-Jun-14 10:30N 59°19' E 018°52'1 2.3
2019-Jun-14 10:00N 59°19' E 018°50'1 1.3
2019-Jun-14 09:11N 59°19' E 018°52'0 2.0
2019-Jun-14 08:59N 59°19' E 018°53'1 1.1
2019-Jun-14 08:19N 59°19' E 018°54'1 0.1
2019-Jun-13 13:31N 59°21' E 018°55'1 3.4
2019-Jun-13 13:06N 59°22' E 018°54'1 3.4
2019-Jun-13 12:45N 59°21' E 018°51'1 1.6
2019-Jun-13 12:19N 59°22' E 018°51'1 2.7
2019-Jun-13 11:59N 59°23' E 018°50'1 2.2
2019-Jun-13 11:24N 59°22' E 018°52'1 2.3
2019-Jun-13 11:00N 59°21' E 018°50'2 2.9
2019-Jun-13 10:21N 59°22' E 018°47'2 4.7
2019-Jun-13 09:58N 59°22' E 018°44'3 5.7
2019-Jun-13 09:27N 59°23' E 018°38'1 0.0
2019-Jun-12 14:00N 59°24' E 018°37'3 5.4
2019-Jun-12 13:29N 59°25' E 018°32'1 3.1
2019-Jun-12 13:00N 59°26' E 018°32'1 1.7
2019-Jun-12 12:28N 59°26' E 018°30'3 5.6
2019-Jun-12 12:00N 59°26' E 018°25'3 5.5
2019-Jun-12 11:30N 59°23' E 018°27'2 4.2
2019-Jun-12 11:00N 59°22' E 018°24'2 5.0
2019-Jun-12 10:30N 59°22' E 018°19'2 4.9
2019-Jun-12 10:00N 59°21' E 018°14'2 4.7
2019-Jun-12 09:30N 59°20' E 018°11'2 4.3
2019-Jun-12 09:00N 59°19' E 018°07'0 0.8
2019-Jun-12 08:29N 59°19' E 018°06'0 0.0
2019-Jun-12 07:59N 59°19' E 018°06'0 0.0
2019-Jun-12 07:29N 59°19' E 018°06'0 0.0
2019-Jun-12 06:59N 59°19' E 018°06'0 0.0
2019-Jun-12 06:29N 59°19' E 018°06'0 0.0
2019-Jun-12 05:59N 59°19' E 018°06'0 0.0
2019-Jun-12 05:29N 59°19' E 018°06'0 0.0
2019-Jun-12 04:59N 59°19' E 018°06'0 0.0
2019-Jun-12 04:29N 59°19' E 018°06'0 0.0
2019-Jun-12 03:59N 59°19' E 018°06'0 0.0
2019-Jun-12 03:29N 59°19' E 018°06'0 0.0
2019-Jun-12 02:59N 59°19' E 018°06'0 0.0
2019-Jun-12 01:59N 59°19' E 018°06'0 0.0
2019-Jun-12 01:29N 59°19' E 018°06'0 0.0
2019-Jun-12 00:59N 59°19' E 018°06'0 0.0
2019-Jun-12 00:29N 59°19' E 018°06'0 0.0
2019-Jun-11 23:59N 59°19' E 018°06'0 0.0
2019-Jun-11 23:29N 59°19' E 018°06'0 0.0
2019-Jun-11 22:59N 59°19' E 018°06'0 0.0
2019-Jun-11 22:29N 59°19' E 018°06'0 0.0
2019-Jun-11 21:59N 59°19' E 018°06'0 0.0
2019-Jun-11 21:29N 59°19' E 018°06'0 0.0
2019-Jun-11 20:59N 59°19' E 018°06'0 0.0
2019-Jun-11 20:29N 59°19' E 018°06'0 0.0
2019-Jun-11 19:59N 59°19' E 018°06'0 0.0
2019-Jun-11 19:29N 59°19' E 018°06'0 0.0
2019-Jun-11 18:59N 59°19' E 018°06'0 0.0
2019-Jun-11 18:29N 59°19' E 018°06'0 0.0
2019-Jun-11 17:59N 59°19' E 018°06'0 0.0
2019-Jun-11 17:29N 59°19' E 018°06'0 0.0
2019-Jun-11 16:59N 59°19' E 018°06'0 0.0
2019-Jun-11 16:29N 59°19' E 018°06'0 0.0
2019-Jun-11 15:56N 59°19' E 018°06'0 0.0
2019-Jun-11 15:29N 59°19' E 018°06'0 0.0
2019-Jun-11 14:59N 59°19' E 018°06'0 0.0
2019-Jun-11 14:23N 59°19' E 018°06'0 0.0
2019-Jun-11 13:59N 59°19' E 018°06'0 0.0
2019-Jun-11 13:29N 59°19' E 018°06'0 0.0
2019-Jun-11 12:59N 59°19' E 018°06'0 0.0
2019-Jun-11 12:29N 59°19' E 018°06'0 0.0
2019-Jun-11 11:59N 59°19' E 018°06'0 0.0
2019-Jun-11 11:29N 59°19' E 018°06'0 0.0
2019-Jun-11 10:59N 59°19' E 018°06'0 0.0
2019-Jun-11 10:26N 59°19' E 018°06'0 0.0
2019-Jun-11 09:59N 59°19' E 018°06'0 0.0
2019-Jun-11 09:29N 59°19' E 018°06'0 0.0
2019-Jun-11 08:59N 59°19' E 018°06'0 0.0
2019-Jun-11 08:29N 59°19' E 018°06'0 0.0
2019-Jun-11 07:59N 59°19' E 018°06'0 0.0
2019-Jun-11 07:23N 59°19' E 018°06'0 0.0
2019-Jun-11 06:59N 59°19' E 018°06'0 0.0
2019-Jun-11 06:29N 59°19' E 018°06'0 0.0
2019-Jun-11 05:59N 59°19' E 018°06'0 0.0
2019-Jun-11 05:29N 59°19' E 018°06'0 0.0
2019-Jun-11 04:59N 59°19' E 018°06'0 0.0
2019-Jun-11 04:29N 59°19' E 018°06'0 0.0
2019-Jun-11 03:59N 59°19' E 018°06'0 0.0
2019-Jun-11 03:29N 59°19' E 018°06'0 0.0
2019-Jun-11 02:59N 59°19' E 018°06'0 0.0
2019-Jun-11 02:29N 59°19' E 018°06'0 0.0
2019-Jun-11 01:59N 59°19' E 018°06'0 0.0
2019-Jun-11 01:29N 59°19' E 018°06'0 0.0
2019-Jun-11 00:59N 59°19' E 018°06'0 0.0
2019-Jun-11 00:29N 59°19' E 018°06'0 0.0
2019-Jun-10 23:59N 59°19' E 018°06'0 0.0
2019-Jun-10 23:29N 59°19' E 018°06'0 0.0
2019-Jun-10 22:59N 59°19' E 018°06'0 0.0
2019-Jun-10 22:29N 59°19' E 018°06'0 0.0
2019-Jun-10 21:59N 59°19' E 018°06'0 0.0
2019-Jun-10 21:30N 59°19' E 018°06'0 0.0
2019-Jun-10 20:59N 59°19' E 018°06'0 0.0
2019-Jun-10 20:29N 59°19' E 018°06'0 0.0
2019-Jun-10 19:59N 59°19' E 018°06'0 0.0
2019-Jun-10 19:30N 59°19' E 018°06'0 0.0
2019-Jun-10 18:59N 59°19' E 018°06'0 0.0
2019-Jun-10 18:29N 59°19' E 018°06'0 0.0
2019-Jun-10 17:59N 59°19' E 018°06'0 0.0
2019-Jun-10 17:29N 59°19' E 018°06'0 0.0
2019-Jun-10 16:59N 59°19' E 018°06'0 0.0
2019-Jun-10 16:29N 59°19' E 018°06'0 0.0
2019-Jun-10 15:59N 59°19' E 018°06'0 0.0
2019-Jun-10 15:29N 59°19' E 018°06'0 0.0
2019-Jun-10 15:00N 59°19' E 018°06'0 0.0
2019-Jun-10 14:29N 59°19' E 018°06'0 0.0
2019-Jun-10 13:59N 59°19' E 018°06'0 0.0
2019-Jun-10 13:30N 59°19' E 018°06'0 0.0
2019-Jun-10 12:59N 59°19' E 018°06'0 0.0
2019-Jun-10 12:29N 59°19' E 018°06'0 0.0
2019-Jun-10 11:59N 59°19' E 018°06'0 0.0
2019-Jun-10 11:29N 59°19' E 018°06'0 0.0
2019-Jun-10 10:59N 59°19' E 018°06'0 0.0
2019-Jun-10 10:29N 59°19' E 018°06'0 0.0
2019-Jun-10 09:59N 59°19' E 018°06'0 0.0
2019-Jun-10 09:29N 59°19' E 018°06'0 0.0
2019-Jun-10 08:59N 59°19' E 018°06'0 0.0
2019-Jun-10 08:29N 59°19' E 018°06'0 0.0
2019-Jun-10 07:59N 59°19' E 018°06'0 0.0
2019-Jun-10 07:29N 59°19' E 018°06'0 0.0
2019-Jun-10 06:59N 59°19' E 018°06'0 0.0
2019-Jun-10 06:30N 59°19' E 018°06'0 0.0
2019-Jun-10 05:59N 59°19' E 018°06'0 0.0
2019-Jun-10 05:29N 59°19' E 018°06'0 0.0
2019-Jun-10 04:59N 59°19' E 018°06'0 0.0
2019-Jun-10 04:29N 59°19' E 018°06'0 0.0
2019-Jun-10 03:59N 59°19' E 018°06'0 0.0
2019-Jun-10 03:29N 59°19' E 018°06'0 0.0
2019-Jun-10 02:59N 59°19' E 018°06'0 0.0
2019-Jun-10 02:29N 59°19' E 018°06'0 0.0
2019-Jun-10 01:59N 59°19' E 018°06'0 0.0
2019-Jun-10 01:29N 59°19' E 018°06'0 0.0
2019-Jun-10 00:59N 59°19' E 018°06'0 0.0
2019-Jun-10 00:29N 59°19' E 018°06'0 0.0
2019-Jun-09 23:59N 59°19' E 018°06'0 0.0
2019-Jun-09 23:29N 59°19' E 018°06'0 0.0
2019-Jun-09 22:59N 59°19' E 018°06'0 0.0
2019-Jun-09 22:29N 59°19' E 018°06'0 0.0
2019-Jun-09 21:59N 59°19' E 018°06'0 0.0
2019-Jun-09 21:29N 59°19' E 018°06'0 0.0
2019-Jun-09 20:59N 59°19' E 018°06'0 0.0
2019-Jun-09 20:29N 59°19' E 018°06'0 0.0
2019-Jun-09 19:59N 59°19' E 018°06'0 0.0
2019-Jun-09 19:29N 59°19' E 018°06'0 0.0
2019-Jun-09 18:59N 59°19' E 018°06'0 0.0
2019-Jun-09 18:29N 59°19' E 018°06'0 0.0
2019-Jun-09 17:59N 59°19' E 018°06'0 0.0
2019-Jun-09 17:29N 59°19' E 018°06'0 0.0
2019-Jun-09 16:59N 59°19' E 018°06'0 0.0
2019-Jun-09 16:29N 59°19' E 018°06'0 0.0
2019-Jun-09 15:59N 59°19' E 018°06'0 0.0
2019-Jun-09 15:29N 59°19' E 018°06'0 0.0
2019-Jun-09 14:59N 59°19' E 018°06'0 0.0
2019-Jun-09 14:29N 59°19' E 018°06'0 0.0
2019-Jun-09 14:00N 59°19' E 018°06'0 0.0
2019-Jun-09 13:30N 59°19' E 018°06'0 0.0
2019-Jun-09 13:00N 59°19' E 018°06'0 0.0
2019-Jun-09 12:30N 59°19' E 018°06'0 0.0
2019-Jun-09 12:00N 59°19' E 018°06'0 0.0
2019-Jun-09 11:30N 59°19' E 018°06'0 0.0
2019-Jun-09 11:00N 59°19' E 018°06'0 0.0
2019-Jun-09 10:30N 59°19' E 018°06'0 0.0
2019-Jun-09 10:00N 59°19' E 018°06'0 0.0
2019-Jun-09 09:30N 59°19' E 018°06'0 0.0
2019-Jun-09 09:00N 59°19' E 018°06'0 0.0
2019-Jun-09 08:30N 59°19' E 018°06'0 0.0
2019-Jun-09 08:00N 59°19' E 018°06'0 0.0
2019-Jun-09 07:30N 59°19' E 018°06'0 0.0
2019-Jun-09 07:00N 59°19' E 018°06'0 0.0
2019-Jun-09 06:30N 59°19' E 018°06'0 0.0
2019-Jun-09 06:00N 59°19' E 018°06'0 0.0
2019-Jun-09 05:30N 59°19' E 018°06'0 0.0
2019-Jun-09 05:01N 59°19' E 018°06'0 0.0
2019-Jun-09 04:00N 59°19' E 018°06'0 0.0
2019-Jun-09 03:30N 59°19' E 018°06'0 0.0
2019-Jun-09 03:01N 59°19' E 018°06'0 0.0
2019-Jun-09 02:31N 59°19' E 018°06'0 0.0
2019-Jun-09 02:00N 59°19' E 018°06'0 0.0
2019-Jun-09 01:30N 59°19' E 018°06'0 0.0
2019-Jun-09 01:00N 59°19' E 018°06'0 0.0
2019-Jun-09 00:30N 59°19' E 018°06'0 0.0
2019-Jun-09 00:00N 59°19' E 018°06'0 0.0
2019-Jun-08 23:30N 59°19' E 018°06'0 0.0
2019-Jun-08 23:00N 59°19' E 018°06'0 0.0
2019-Jun-08 22:30N 59°19' E 018°06'0 0.0
2019-Jun-08 22:00N 59°19' E 018°06'0 0.0
2019-Jun-08 21:30N 59°19' E 018°06'0 0.0
2019-Jun-08 21:00N 59°19' E 018°06'0 0.0
2019-Jun-08 20:30N 59°19' E 018°06'0 0.0
2019-Jun-08 20:00N 59°19' E 018°06'0 0.0
2019-Jun-08 19:30N 59°19' E 018°06'0 0.0
2019-Jun-08 19:00N 59°19' E 018°06'0 0.0
2019-Jun-08 18:30N 59°19' E 018°06'0 0.0
2019-Jun-08 18:00N 59°19' E 018°06'0 0.0
2019-Jun-08 17:30N 59°19' E 018°06'0 0.0
2019-Jun-08 17:00N 59°19' E 018°06'0 0.0
2019-Jun-08 16:30N 59°19' E 018°06'0 0.0
2019-Jun-08 16:00N 59°19' E 018°06'0 0.0
2019-Jun-08 15:30N 59°19' E 018°06'0 0.0
2019-Jun-08 15:00N 59°19' E 018°06'0 0.0
2019-Jun-08 14:30N 59°19' E 018°06'0 0.0
2019-Jun-08 14:01N 59°19' E 018°06'0 0.0
2019-Jun-08 13:30N 59°19' E 018°06'0 0.0
2019-Jun-08 13:00N 59°19' E 018°06'0 0.0
2019-Jun-08 12:31N 59°19' E 018°06'0 0.0
2019-Jun-08 12:00N 59°19' E 018°06'0 0.0
2019-Jun-08 11:30N 59°19' E 018°06'0 0.0
2019-Jun-08 11:00N 59°19' E 018°06'0 0.0
2019-Jun-08 10:30N 59°19' E 018°06'0 0.0
2019-Jun-08 10:00N 59°19' E 018°06'0 0.0
2019-Jun-08 09:30N 59°19' E 018°06'0 0.0
2019-Jun-08 09:00N 59°19' E 018°06'0 0.0
2019-Jun-08 08:30N 59°19' E 018°06'0 0.0
2019-Jun-08 08:01N 59°19' E 018°06'0 0.0
2019-Jun-08 07:30N 59°19' E 018°06'0 0.0
2019-Jun-08 07:00N 59°19' E 018°06'0 0.0
2019-Jun-08 06:31N 59°19' E 018°06'0 0.0
2019-Jun-08 06:00N 59°19' E 018°06'0 0.0
2019-Jun-08 05:30N 59°19' E 018°06'0 0.0
2019-Jun-08 05:00N 59°19' E 018°06'0 0.0
2019-Jun-08 04:30N 59°19' E 018°06'0 0.0
2019-Jun-08 04:00N 59°19' E 018°06'0 0.0
2019-Jun-08 03:31N 59°19' E 018°06'0 0.0
2019-Jun-08 03:00N 59°19' E 018°06'0 0.0
2019-Jun-08 02:30N 59°19' E 018°06'0 0.0
2019-Jun-08 02:00N 59°19' E 018°06'0 0.0
2019-Jun-08 01:30N 59°19' E 018°06'0 0.0
2019-Jun-08 01:01N 59°19' E 018°06'0 0.0
2019-Jun-08 00:30N 59°19' E 018°06'0 0.0
2019-Jun-08 00:00N 59°19' E 018°06'0 0.0
2019-Jun-07 23:30N 59°19' E 018°06'0 0.0
2019-Jun-07 23:00N 59°19' E 018°06'0 0.0
2019-Jun-07 22:30N 59°19' E 018°06'0 0.0
2019-Jun-07 22:00N 59°19' E 018°06'0 0.0
2019-Jun-07 21:30N 59°19' E 018°06'0 0.0
2019-Jun-07 21:00N 59°19' E 018°06'0 0.0
2019-Jun-07 20:30N 59°19' E 018°06'0 0.0
2019-Jun-07 20:00N 59°19' E 018°06'0 0.0
2019-Jun-07 19:30N 59°19' E 018°06'0 0.0
2019-Jun-07 19:00N 59°19' E 018°06'0 0.0
2019-Jun-07 18:30N 59°19' E 018°06'0 0.0
2019-Jun-07 18:00N 59°19' E 018°06'0 0.0
2019-Jun-07 17:30N 59°19' E 018°06'0 0.0
2019-Jun-07 17:00N 59°19' E 018°06'0 0.0
2019-Jun-07 16:30N 59°19' E 018°06'0 0.0
2019-Jun-07 16:00N 59°19' E 018°06'0 0.0
2019-Jun-07 15:30N 59°19' E 018°06'0 0.0
2019-Jun-07 15:00N 59°19' E 018°06'0 0.0
2019-Jun-07 14:30N 59°19' E 018°06'0 0.0
2019-Jun-07 14:00N 59°19' E 018°06'0 0.0
2019-Jun-07 13:31N 59°19' E 018°06'0 0.0
2019-Jun-07 13:00N 59°19' E 018°06'0 0.0
2019-Jun-07 12:30N 59°19' E 018°06'0 0.0
2019-Jun-07 12:00N 59°19' E 018°06'0 0.0
2019-Jun-07 11:30N 59°19' E 018°06'0 0.0
2019-Jun-07 11:00N 59°19' E 018°06'0 0.0
2019-Jun-07 10:30N 59°19' E 018°06'0 0.0
2019-Jun-07 10:00N 59°19' E 018°06'0 0.0
2019-Jun-07 09:30N 59°19' E 018°06'0 0.0
2019-Jun-07 09:00N 59°19' E 018°06'0 0.0
2019-Jun-07 08:30N 59°19' E 018°06'0 0.0
2019-Jun-07 08:01N 59°19' E 018°06'0 0.0
2019-Jun-07 07:30N 59°19' E 018°06'0 0.0
2019-Jun-07 07:00N 59°19' E 018°06'0 0.0
2019-Jun-07 06:30N 59°19' E 018°06'0 0.0
2019-Jun-07 06:00N 59°19' E 018°06'0 0.0
2019-Jun-07 05:31N 59°19' E 018°06'0 0.0
2019-Jun-07 05:00N 59°19' E 018°06'0 0.0
2019-Jun-07 04:31N 59°19' E 018°06'0 0.0
2019-Jun-07 04:00N 59°19' E 018°06'0 0.0
2019-Jun-07 03:30N 59°19' E 018°06'0 0.0
2019-Jun-07 03:00N 59°19' E 018°06'0 0.0
2019-Jun-07 02:30N 59°19' E 018°06'0 0.0
2019-Jun-07 02:00N 59°19' E 018°06'0 0.0
2019-Jun-07 01:30N 59°19' E 018°06'0 0.0
2019-Jun-07 01:00N 59°19' E 018°06'0 0.0
2019-Jun-07 00:30N 59°19' E 018°06'0 0.0
2019-Jun-07 00:00N 59°19' E 018°06'0 0.0
2019-Jun-06 23:30N 59°19' E 018°06'0 0.0
2019-Jun-06 23:00N 59°19' E 018°06'0 0.0
2019-Jun-06 22:30N 59°19' E 018°06'0 0.0
2019-Jun-06 22:00N 59°19' E 018°06'0 0.0
2019-Jun-06 21:30N 59°19' E 018°06'0 0.0
2019-Jun-06 21:00N 59°19' E 018°06'0 0.0
2019-Jun-06 20:30N 59°19' E 018°06'0 0.0
2019-Jun-06 20:00N 59°19' E 018°06'0 0.0
2019-Jun-06 19:30N 59°19' E 018°06'0 0.0
2019-Jun-06 19:00N 59°19' E 018°06'0 0.0
2019-Jun-06 18:30N 59°19' E 018°06'0 0.0
2019-Jun-06 18:00N 59°19' E 018°06'0 0.0
2019-Jun-06 17:30N 59°19' E 018°06'0 0.0
2019-Jun-06 17:00N 59°19' E 018°06'0 0.0
2019-Jun-06 16:30N 59°19' E 018°06'0 0.0
2019-Jun-06 16:00N 59°19' E 018°06'0 0.0
2019-Jun-06 15:30N 59°19' E 018°06'0 0.0
2019-Jun-06 15:00N 59°19' E 018°06'0 0.0
2019-Jun-06 14:30N 59°19' E 018°06'  

Dump ship's entire track history